Coeur d'Alene, Idaho
Current Conditions -  °F | °C
As of 7:35 PM on Friday 28 Nov 2014 (Local Time) from KCOE Reporting Station
Overcast Overcast  
Wind Chill: 39°   Ceiling: 3500
Heat Index: 48°   Visibility: 10mi
Dew Point: 41°   Wind: 35mph
Humidity: 76%   Direction: 230°SW
Pressure: 29.23"   Gusts: 40mph
Location:  47.68°N, 116.79°W
Report Text: KCOE 290335Z AUTO 23030G35KT 10SM SCT026 OVC035 09/05 A2923 RMK AO1 P0001
Loading
Personal Weather Stations






























Interactive Weather Map New forecast layout! Learn more

10-Day Weather Forecast

Advertisements
Track Severe Weather on mobile